Alameda, California
Current Conditions -  °F | °C
As of 2:53 PM on Saturday 25 Oct 2014 (Local Time) from KOAK Reporting Station
Broken Clouds Broken Clouds  
Wind Chill: 21°   Ceiling: 5000
Heat Index: 21°   Visibility: 10mi
Dew Point: 13°   Wind: 16mph
Humidity: 61%   Direction: 230°SW
Pressure: 30.07"   Gusts: NA
Location:  37.77°N, 122.24°W
Report Text: KOAK 252153Z 23014KT 10SM SCT041 BKN050 21/13 A3007 RMK AO2 SLP180 T02060128
Loading
Personal Weather Stations






























Interactive Weather Map New forecast layout! Learn more

10-Day Weather Forecast

Advertisements
Track Severe Weather on mobile